createdAt,value
2018-03-04T00:00:17.292Z,0.66
2018-03-04T00:01:17.270Z,0.76
2018-03-04T00:02:17.265Z,0.68
2018-03-04T00:03:17.282Z,0.7
2018-03-04T00:04:17.258Z,0.63
2018-03-04T00:05:17.274Z,0.65
2018-03-04T00:06:17.289Z,0.65
2018-03-04T00:07:17.273Z,0.63
2018-03-04T00:08:17.301Z,0.66
2018-03-04T00:09:17.288Z,0.63
2018-03-04T00:10:17.306Z,0.63
2018-03-04T00:11:17.303Z,0.66
2018-03-04T00:12:17.287Z,0.64
2018-03-04T00:13:17.284Z,0.6
2018-03-04T00:14:17.304Z,0.68
2018-03-04T00:15:17.296Z,0.67
2018-03-04T00:16:17.296Z,0.63
2018-03-04T00:17:17.330Z,0.61
2018-03-04T00:18:17.313Z,0.52
2018-03-04T00:19:17.302Z,0.61
2018-03-04T00:20:17.308Z,0.56
2018-03-04T00:21:17.303Z,0.63
2018-03-04T00:22:17.343Z,0.58
2018-03-04T00:23:17.313Z,0.52
2018-03-04T00:24:17.334Z,0.55
2018-03-04T00:25:17.311Z,0.57
2018-03-04T00:26:17.314Z,0.6
2018-03-04T00:27:17.342Z,0.57
2018-03-04T00:28:17.329Z,0.6
2018-03-04T00:29:17.336Z,0.56
2018-03-04T00:31:23.553Z,0.6
2018-03-04T00:32:17.340Z,0.66
2018-03-04T00:33:17.352Z,0.57
2018-03-04T00:34:17.322Z,0.63
2018-03-04T00:35:17.327Z,0.63
2018-03-04T00:36:17.357Z,0.61
2018-03-04T00:37:17.339Z,0.63
2018-03-04T00:38:17.385Z,0.63
2018-03-04T00:39:17.370Z,0.59
2018-03-04T00:41:23.610Z,0.62
2018-03-04T00:42:17.368Z,0.6
2018-03-04T00:43:17.348Z,0.59
2018-03-04T00:44:17.359Z,0.63
2018-03-04T00:45:17.360Z,0.61
2018-03-04T00:46:17.383Z,0.63
2018-03-04T00:47:17.362Z,0.74
2018-03-04T00:48:17.378Z,0.63
2018-03-04T00:49:17.388Z,0.63
2018-03-04T00:50:17.389Z,0.63
2018-03-04T00:51:17.391Z,0.71
2018-03-04T00:52:17.697Z,0.73
2018-03-04T00:53:17.390Z,0.65
2018-03-04T00:54:17.401Z,0.75
2018-03-04T00:55:17.394Z,0.69
2018-03-04T00:56:17.395Z,0.71
2018-03-04T00:57:17.416Z,0.72
2018-03-04T00:58:17.410Z,0.67
2018-03-04T00:59:17.399Z,0.71
2018-03-04T01:00:17.396Z,0.71
2018-03-04T01:01:17.402Z,0.7
2018-03-04T01:02:17.434Z,0.72
2018-03-04T01:03:17.409Z,0.67
2018-03-04T01:04:17.414Z,0.69
2018-03-04T01:05:17.425Z,0.64
2018-03-04T01:06:17.424Z,0.67
2018-03-04T01:07:17.426Z,0.62
2018-03-04T01:08:17.439Z,0.62
2018-03-04T01:09:17.417Z,0.65
2018-03-04T01:10:17.420Z,0.68
2018-03-04T01:11:17.458Z,0.65
2018-03-04T01:12:17.463Z,0.62
2018-03-04T01:13:17.713Z,0.6
2018-03-04T01:14:17.447Z,0.64
2018-03-04T01:15:17.456Z,0.64
2018-03-04T01:16:17.460Z,0.68
2018-03-04T01:17:17.451Z,0.7
2018-03-04T01:18:17.475Z,0.66
2018-03-04T01:20:23.707Z,0.74
2018-03-04T01:21:17.461Z,0.7
2018-03-04T01:22:17.478Z,0.67
2018-03-04T01:23:17.484Z,0.72
2018-03-04T01:24:17.468Z,0.79
2018-03-04T01:25:17.473Z,0.7
2018-03-04T01:26:17.482Z,0.66
2018-03-04T01:27:17.501Z,0.73
2018-03-04T01:28:17.474Z,0.72
2018-03-04T01:29:17.508Z,0.72
2018-03-04T01:30:17.508Z,0.72
2018-03-04T01:31:17.494Z,0.72
2018-03-04T01:32:17.499Z,0.7
2018-03-04T01:33:17.496Z,0.64
2018-03-04T01:34:17.520Z,0.76
2018-03-04T01:35:17.502Z,0.76
2018-03-04T01:36:17.486Z,0.73
2018-03-04T01:37:17.501Z,0.73
2018-03-04T01:38:17.501Z,0.73
2018-03-04T01:39:17.543Z,0.7
2018-03-04T01:40:17.508Z,0.78
2018-03-04T01:41:17.513Z,0.76
2018-03-04T01:42:17.504Z,0.69
2018-03-04T01:43:17.518Z,0.71
2018-03-04T01:44:17.545Z,0.76
2018-03-04T01:45:17.547Z,0.78
2018-03-04T01:46:17.542Z,0.71
2018-03-04T01:47:17.529Z,0.74
2018-03-04T01:48:17.558Z,0.74
2018-03-04T01:49:17.545Z,0.78
2018-03-04T01:50:17.554Z,0.76
2018-03-04T01:51:17.572Z,0.73
2018-03-04T01:52:17.569Z,0.73
2018-03-04T01:53:17.558Z,0.74
2018-03-04T01:54:17.558Z,0.77
2018-03-04T01:55:17.618Z,0.84
2018-03-04T01:56:17.576Z,0.74
2018-03-04T01:57:17.892Z,0.78
2018-03-04T01:58:17.586Z,0.78
2018-03-04T01:59:17.722Z,0.71
2018-03-04T02:00:17.583Z,0.77
2018-03-04T02:01:17.581Z,0.77
2018-03-04T02:02:17.622Z,0.75
2018-03-04T02:03:17.593Z,0.77
2018-03-04T02:04:17.633Z,0.76
2018-03-04T02:05:17.589Z,0.66
2018-03-04T02:06:17.595Z,0.73
2018-03-04T02:07:17.614Z,0.81
2018-03-04T02:08:17.596Z,0.81
2018-03-04T02:09:17.598Z,0.78
2018-03-04T02:10:17.606Z,0.83
2018-03-04T02:11:17.613Z,0.85
2018-03-04T02:12:17.606Z,0.86
2018-03-04T02:13:17.635Z,0.85
2018-03-04T02:14:17.615Z,0.79
2018-03-04T02:15:17.630Z,0.82
2018-03-04T02:16:17.649Z,0.72
2018-03-04T02:18:25.856Z,0.81
2018-03-04T02:19:17.652Z,0.82
2018-03-04T02:20:17.626Z,0.78
2018-03-04T02:21:17.640Z,0.73
2018-03-04T02:22:17.626Z,0.8
2018-03-04T02:23:17.640Z,0.82
2018-03-04T02:24:17.639Z,0.94
2018-03-04T02:25:17.671Z,0.8
2018-03-04T02:26:17.624Z,0.76
2018-03-04T02:27:17.618Z,0.74
2018-03-04T02:28:17.620Z,0.78
2018-03-04T02:29:17.674Z,0.83
2018-03-04T02:30:17.651Z,0.73
2018-03-04T02:31:17.635Z,0.83
2018-03-04T02:32:17.655Z,0.96
2018-03-04T02:33:17.656Z,0.87
2018-03-04T02:34:17.648Z,0.83
2018-03-04T02:35:17.685Z,0.86
2018-03-04T02:36:17.695Z,0.85
2018-03-04T02:37:17.658Z,0.82
2018-03-04T02:38:17.672Z,0.87
2018-03-04T02:39:17.671Z,0.87
2018-03-04T02:40:17.938Z,0.85
2018-03-04T02:41:17.683Z,0.84
2018-03-04T02:42:17.675Z,0.88
2018-03-04T02:43:17.697Z,0.87
2018-03-04T02:44:17.674Z,0.86
2018-03-04T02:45:17.704Z,0.85
2018-03-04T02:46:17.726Z,0.85
2018-03-04T02:47:17.683Z,0.8
2018-03-04T02:48:17.678Z,0.83
2018-03-04T02:49:17.709Z,0.83
2018-03-04T02:50:17.690Z,0.89
2018-03-04T02:51:17.723Z,0.84
2018-03-04T02:52:17.784Z,0.91
2018-03-04T02:53:17.707Z,0.91
2018-03-04T02:54:17.699Z,0.85
2018-03-04T02:55:17.709Z,0.87
2018-03-04T02:56:17.717Z,0.86
2018-03-04T02:57:17.697Z,0.8
2018-03-04T02:58:17.722Z,0.85
2018-03-04T02:59:17.701Z,0.87
2018-03-04T03:00:17.716Z,0.92
2018-03-04T03:01:17.733Z,0.9
2018-03-04T03:02:17.714Z,0.89
2018-03-04T03:03:17.762Z,0.82
2018-03-04T03:04:17.728Z,0.94
2018-03-04T03:05:17.727Z,0.91
2018-03-04T03:07:24.021Z,0.97
2018-03-04T03:08:17.752Z,0.99
2018-03-04T03:09:17.763Z,0.96
2018-03-04T03:10:17.746Z,0.91
2018-03-04T03:11:17.750Z,0.89
2018-03-04T03:12:17.766Z,0.92
2018-03-04T03:13:17.782Z,0.94
2018-03-04T03:14:17.777Z,0.96
2018-03-04T03:15:17.763Z,0.92
2018-03-04T03:17:23.934Z,0.94
2018-03-04T03:18:17.763Z,0.94
2018-03-04T03:19:17.755Z,0.9
2018-03-04T03:20:17.777Z,0.94
2018-03-04T03:21:17.835Z,0.93
2018-03-04T03:22:17.780Z,0.9
2018-03-04T03:23:17.780Z,0.9
2018-03-04T03:24:17.786Z,0.91
2018-03-04T03:25:17.793Z,0.89
2018-03-04T03:26:17.820Z,0.96
2018-03-04T03:27:17.810Z,0.95
2018-03-04T03:28:17.800Z,0.88
2018-03-04T03:29:17.805Z,0.89
2018-03-04T03:30:17.821Z,0.87
2018-03-04T03:31:17.840Z,0.84
2018-03-04T03:32:17.808Z,0.75
2018-03-04T03:33:17.835Z,0.83
2018-03-04T03:34:17.820Z,0.81
2018-03-04T03:36:38.637Z,1
2018-03-04T03:37:17.820Z,0.94
2018-03-04T03:38:17.830Z,0.87
2018-03-04T03:39:17.820Z,0.9
2018-03-04T03:40:17.828Z,0.88
2018-03-04T03:41:17.833Z,0.98
2018-03-04T03:42:17.842Z,1
2018-03-04T03:43:17.845Z,0.95
2018-03-04T03:44:17.840Z,0.96
2018-03-04T03:45:17.858Z,0.9
2018-03-04T03:46:17.868Z,0.93
2018-03-04T03:47:18.436Z,0.92
2018-03-04T03:48:17.888Z,0.98
2018-03-04T03:49:17.871Z,1
2018-03-04T03:50:17.871Z,1.01
2018-03-04T03:51:17.872Z,0.95
2018-03-04T03:52:17.857Z,0.84
2018-03-04T03:53:17.879Z,0.93
2018-03-04T03:54:17.872Z,0.93
2018-03-04T03:55:17.912Z,0.86
2018-03-04T03:56:17.899Z,0.97
2018-03-04T03:57:17.913Z,0.91
2018-03-04T03:58:17.899Z,0.93
2018-03-04T03:59:17.903Z,0.95
2018-03-04T04:00:17.979Z,0.96
2018-03-04T04:01:17.884Z,0.92
2018-03-04T04:02:19.010Z,0.88
2018-03-04T04:03:18.024Z,0.87
2018-03-04T04:04:19.863Z,0.81
2018-03-04T04:05:22.641Z,0.82
2018-03-04T04:06:23.616Z,0.88
2018-03-04T04:07:20.456Z,0.89
2018-03-04T04:08:23.408Z,1.01
2018-03-04T04:09:24.148Z,0.97
2018-03-04T04:10:20.213Z,0.94
2018-03-04T04:11:19.555Z,0.96
2018-03-04T04:12:26.448Z,0.98
2018-03-04T04:13:17.971Z,0.96
2018-03-04T04:14:17.952Z,0.97
2018-03-04T04:15:18.246Z,0.88
2018-03-04T04:16:17.983Z,0.89
2018-03-04T04:17:17.975Z,0.81
2018-03-04T04:18:17.986Z,0.87
2018-03-04T04:19:17.956Z,0.85
2018-03-04T04:20:17.978Z,0.88
2018-03-04T04:21:17.964Z,0.82
2018-03-04T04:22:17.986Z,0.82
2018-03-04T04:23:17.989Z,0.84
2018-03-04T04:24:18.023Z,0.85
2018-03-04T04:25:17.994Z,0.77
2018-03-04T04:26:17.993Z,0.76
2018-03-04T04:27:17.996Z,0.74
2018-03-04T04:28:18.016Z,0.75
2018-03-04T04:29:18.013Z,0.77
2018-03-04T04:30:18.009Z,0.78
2018-03-04T04:31:18.004Z,0.73
2018-03-04T04:32:17.994Z,0.79
2018-03-04T04:33:18.013Z,0.71
2018-03-04T04:34:18.031Z,0.72
2018-03-04T04:35:18.038Z,0.72
2018-03-04T04:36:18.037Z,0.74
2018-03-04T04:37:18.018Z,0.69
2018-03-04T04:38:18.059Z,0.71
2018-03-04T04:39:18.080Z,0.71
2018-03-04T04:41:24.557Z,0.76
2018-03-04T04:42:18.034Z,0.74
2018-03-04T04:43:18.035Z,0.7
2018-03-04T04:44:18.050Z,0.69
2018-03-04T04:45:18.173Z,0.71
2018-03-04T04:46:18.082Z,0.72
2018-03-04T04:47:18.087Z,0.7
2018-03-04T04:48:18.055Z,0.74
2018-03-04T04:49:18.060Z,0.72
2018-03-04T04:51:24.350Z,0.7
2018-03-04T04:52:18.124Z,0.73
2018-03-04T04:53:18.090Z,0.67
2018-03-04T04:54:18.107Z,0.69
2018-03-04T04:55:18.098Z,0.66
2018-03-04T04:56:18.126Z,0.66
2018-03-04T04:57:18.420Z,0.67
2018-03-04T04:58:18.238Z,0.67
2018-03-04T04:59:18.121Z,0.69
2018-03-04T05:00:18.123Z,0.69
2018-03-04T05:01:18.118Z,0.7
2018-03-04T05:02:18.169Z,0.69
2018-03-04T05:03:18.126Z,0.66
2018-03-04T05:04:18.197Z,0.74
2018-03-04T05:05:18.144Z,0.71
2018-03-04T05:06:18.133Z,0.67
2018-03-04T05:07:18.168Z,0.71
2018-03-04T05:08:18.158Z,0.78
2018-03-04T05:09:18.148Z,0.73
2018-03-04T05:10:18.146Z,0.66
2018-03-04T05:11:18.190Z,0.71
2018-03-04T05:12:18.178Z,0.7
2018-03-04T05:13:18.169Z,0.65
2018-03-04T05:14:18.213Z,0.64
2018-03-04T05:15:18.157Z,0.57
2018-03-04T05:16:18.172Z,0.63
2018-03-04T05:17:18.167Z,0.68
2018-03-04T05:18:18.221Z,0.66
2018-03-04T05:19:18.200Z,0.64
2018-03-04T05:20:18.165Z,0.63
2018-03-04T05:21:18.215Z,0.63
2018-03-04T05:22:18.180Z,0.66
2018-03-04T05:23:18.179Z,0.7
2018-03-04T05:24:18.186Z,0.69
2018-03-04T05:25:18.193Z,0.62
2018-03-04T05:26:18.204Z,0.68
2018-03-04T05:27:18.184Z,0.64
2018-03-04T05:28:18.255Z,0.72
2018-03-04T05:29:18.181Z,0.71
2018-03-04T05:30:18.200Z,0.69
2018-03-04T05:31:18.202Z,0.72
2018-03-04T05:32:18.197Z,0.71
2018-03-04T05:33:18.202Z,0.68
2018-03-04T05:34:18.194Z,0.66
2018-03-04T05:35:18.209Z,0.67
2018-03-04T05:36:18.227Z,0.64
2018-03-04T05:37:18.211Z,0.68
2018-03-04T05:38:18.230Z,0.67
2018-03-04T05:39:18.217Z,0.58
2018-03-04T05:40:18.221Z,0.65
2018-03-04T05:41:18.235Z,0.67
2018-03-04T05:42:18.236Z,0.74
2018-03-04T05:43:18.278Z,0.65
2018-03-04T05:44:18.236Z,0.71
2018-03-04T05:45:18.239Z,0.64
2018-03-04T05:46:18.258Z,0.63
2018-03-04T05:47:18.252Z,0.7
2018-03-04T05:48:18.257Z,0.72
2018-03-04T05:49:18.255Z,0.72
2018-03-04T05:50:18.261Z,0.74
2018-03-04T05:51:18.329Z,0.72
2018-03-04T05:52:18.266Z,0.68
2018-03-04T05:53:18.293Z,0.72
2018-03-04T05:54:18.279Z,0.68
2018-03-04T05:55:18.279Z,0.71
2018-03-04T05:56:18.296Z,0.77
2018-03-04T05:57:18.288Z,0.68
2018-03-04T06:00:18.380Z,0.69
2018-03-04T06:01:18.279Z,0.64
2018-03-04T06:02:18.323Z,0.79
2018-03-04T06:03:18.394Z,0.74
2018-03-04T06:04:18.308Z,0.71
2018-03-04T06:05:18.343Z,0.78
2018-03-04T06:06:18.310Z,0.76
2018-03-04T06:07:18.341Z,0.79
2018-03-04T06:08:18.417Z,0.69
2018-03-04T06:09:18.367Z,0.67
2018-03-04T06:10:18.386Z,0.6
2018-03-04T06:11:18.319Z,0.66
2018-03-04T06:12:18.575Z,0.68
2018-03-04T06:13:18.333Z,0.78
2018-03-04T06:14:18.352Z,0.77
2018-03-04T06:15:18.340Z,0.62
2018-03-04T06:16:18.337Z,0.78
2018-03-04T06:17:18.335Z,0.75
2018-03-04T06:18:18.408Z,0.89
2018-03-04T06:19:19.264Z,0.75
2018-03-04T06:20:18.381Z,0.84
2018-03-04T06:21:18.359Z,0.84
2018-03-04T06:22:18.410Z,0.82
2018-03-04T06:23:18.372Z,0.84
2018-03-04T06:24:18.425Z,0.95
2018-03-04T06:25:18.432Z,1
2018-03-04T06:26:18.470Z,0.98
2018-03-04T06:27:18.437Z,0.95
2018-03-04T06:28:18.442Z,0.99
2018-03-04T06:29:18.368Z,0.93
2018-03-04T06:30:18.363Z,0.91
2018-03-04T06:31:18.385Z,0.85
2018-03-04T06:32:18.399Z,0.95
2018-03-04T06:33:18.374Z,0.95
2018-03-04T06:34:18.391Z,0.94
2018-03-04T06:35:18.386Z,0.87
2018-03-04T06:36:19.026Z,0.86
2018-03-04T06:37:18.375Z,1
2018-03-04T06:38:18.390Z,1.03
2018-03-04T06:39:18.473Z,1.02
2018-03-04T06:40:18.414Z,1.07
2018-03-04T06:41:18.454Z,1.09
2018-03-04T06:42:19.042Z,1.05
2018-03-04T06:43:18.765Z,1.15
2018-03-04T06:44:18.426Z,1.19
2018-03-04T06:45:18.415Z,1.2
2018-03-04T06:46:19.077Z,1.24
2018-03-04T06:47:19.032Z,1.22
2018-03-04T06:48:18.438Z,1.35
2018-03-04T06:49:18.446Z,1.3
2018-03-04T06:50:18.710Z,1.29
2018-03-04T06:51:18.508Z,1.31
2018-03-04T06:52:18.456Z,1.27
2018-03-04T06:53:18.450Z,1.3
2018-03-04T06:54:18.495Z,1.32
2018-03-04T06:55:18.516Z,1.31
2018-03-04T06:56:18.488Z,1.34
2018-03-04T06:57:19.133Z,1.32
2018-03-04T06:58:18.488Z,1.4
2018-03-04T06:59:18.701Z,1.34
2018-03-04T07:00:18.484Z,1.25
2018-03-04T07:01:18.478Z,1.28
2018-03-04T07:02:18.486Z,1.28
2018-03-04T07:03:18.479Z,1.21
2018-03-04T07:04:18.534Z,1.41
2018-03-04T07:05:18.481Z,1.39
2018-03-04T07:06:18.486Z,1.29
2018-03-04T07:07:18.534Z,1.27
2018-03-04T07:08:18.485Z,1.27
2018-03-04T07:09:18.531Z,1.23
2018-03-04T07:10:18.536Z,1.15
2018-03-04T07:11:18.502Z,1.16
2018-03-04T07:12:18.515Z,1.19
2018-03-04T07:13:18.543Z,1.23
2018-03-04T07:14:18.782Z,1.25
2018-03-04T07:15:18.685Z,1.18
2018-03-04T07:16:18.541Z,1.2
2018-03-04T07:17:18.523Z,1.1
2018-03-04T07:18:18.533Z,1.26
2018-03-04T07:19:18.546Z,1.25
2018-03-04T07:20:18.545Z,1.26
2018-03-04T07:21:18.560Z,1.3
2018-03-04T07:22:18.553Z,1.21
2018-03-04T07:23:18.643Z,1.33
2018-03-04T07:24:18.645Z,1.26
2018-03-04T07:25:19.201Z,1.44
2018-03-04T07:26:18.532Z,1.37
2018-03-04T07:27:18.529Z,1.46
2018-03-04T07:28:18.546Z,1.48
2018-03-04T07:29:18.619Z,1.42
2018-03-04T07:30:18.654Z,1.4
2018-03-04T07:31:18.565Z,1.36
2018-03-04T07:32:18.555Z,1.45
2018-03-04T07:33:18.853Z,1.48
2018-03-04T07:34:18.557Z,1.46
2018-03-04T07:35:18.645Z,1.5
2018-03-04T07:36:18.552Z,1.6
2018-03-04T07:37:18.560Z,1.51
2018-03-04T07:38:18.569Z,1.6
2018-03-04T07:39:19.292Z,1.64
2018-03-04T07:40:19.588Z,1.7
2018-03-04T07:41:18.639Z,1.71
2018-03-04T07:42:18.592Z,1.83
2018-03-04T07:43:19.210Z,1.86
2018-03-04T07:44:18.607Z,1.88
2018-03-04T07:46:24.919Z,1.83
2018-03-04T07:47:18.769Z,1.86
2018-03-04T07:48:18.580Z,1.9
2018-03-04T07:49:18.642Z,1.91
2018-03-04T07:50:18.609Z,2.08
2018-03-04T07:51:18.605Z,2.09
2018-03-04T07:52:18.608Z,2.05
2018-03-04T07:53:18.620Z,2.1
2018-03-04T07:54:18.621Z,2.08
2018-03-04T07:55:18.624Z,2.11
2018-03-04T07:56:18.635Z,2.16
2018-03-04T07:57:18.621Z,2.27
2018-03-04T07:58:18.631Z,2.27
2018-03-04T07:59:18.625Z,2.26
2018-03-04T08:00:18.625Z,2.2
2018-03-04T08:01:18.665Z,2.24
2018-03-04T08:02:18.692Z,2.26
2018-03-04T08:03:18.692Z,2.19
2018-03-04T08:04:18.693Z,2.25
2018-03-04T08:05:18.663Z,2.25
2018-03-04T08:06:18.685Z,2.27
2018-03-04T08:07:18.682Z,2.22
2018-03-04T08:08:18.650Z,2.21
2018-03-04T08:09:18.658Z,2.37
2018-03-04T08:10:18.706Z,2.38
2018-03-04T08:11:18.716Z,2.46
2018-03-04T08:12:18.652Z,2.37
2018-03-04T08:13:18.692Z,2.48
2018-03-04T08:14:18.837Z,2.53
2018-03-04T08:15:18.866Z,2.47
2018-03-04T08:16:18.710Z,2.54
2018-03-04T08:17:18.697Z,2.48
2018-03-04T08:18:18.768Z,2.41
2018-03-04T08:19:18.668Z,2.57
2018-03-04T08:20:18.685Z,2.48
2018-03-04T08:21:18.695Z,2.55
2018-03-04T08:22:18.677Z,2.54
2018-03-04T08:23:18.706Z,2.58
2018-03-04T08:24:19.801Z,2.55
2018-03-04T08:25:18.704Z,2.6
2018-03-04T08:26:18.704Z,2.64
2018-03-04T08:27:18.719Z,2.64
2018-03-04T08:28:18.886Z,2.64
2018-03-04T08:29:18.737Z,2.72
2018-03-04T08:30:18.710Z,2.66
2018-03-04T08:31:18.722Z,2.72
2018-03-04T08:32:18.726Z,2.67
2018-03-04T08:33:18.720Z,2.77
2018-03-04T08:34:18.712Z,2.67
2018-03-04T08:35:18.749Z,2.73
2018-03-04T08:36:18.725Z,2.75
2018-03-04T08:37:18.725Z,2.78
2018-03-04T08:38:18.733Z,2.77
2018-03-04T08:39:18.738Z,2.87
2018-03-04T08:40:18.805Z,2.79
2018-03-04T08:41:18.752Z,2.74
2018-03-04T08:42:18.744Z,2.85
2018-03-04T08:43:18.752Z,2.81
2018-03-04T08:44:19.160Z,2.76
2018-03-04T08:45:18.752Z,2.78
2018-03-04T08:46:18.749Z,2.84
2018-03-04T08:47:18.742Z,2.79
2018-03-04T08:48:18.761Z,2.8
2018-03-04T08:49:18.781Z,2.83
2018-03-04T08:50:18.786Z,2.85
2018-03-04T08:51:18.784Z,2.85
2018-03-04T08:52:18.767Z,2.88
2018-03-04T08:53:18.777Z,2.96
2018-03-04T08:54:18.790Z,2.91
2018-03-04T08:55:18.769Z,2.88
2018-03-04T08:56:18.786Z,2.94
2018-03-04T08:57:18.768Z,2.86
2018-03-04T08:58:18.772Z,2.86
2018-03-04T08:59:18.796Z,3.07
2018-03-04T09:00:18.774Z,3.01
2018-03-04T09:01:18.792Z,3.06
2018-03-04T09:02:18.977Z,2.97
2018-03-04T09:03:18.805Z,3.08
2018-03-04T09:04:18.805Z,3.11
2018-03-04T09:05:18.807Z,3.01
2018-03-04T09:06:18.894Z,3.12
2018-03-04T09:07:18.794Z,3.11
2018-03-04T09:08:19.632Z,3.09
2018-03-04T09:09:19.049Z,3.27
2018-03-04T09:10:18.789Z,3.2
2018-03-04T09:11:18.796Z,3.29
2018-03-04T09:14:18.935Z,3.34
2018-03-04T09:15:18.810Z,3.39
2018-03-04T09:16:18.809Z,3.35
2018-03-04T09:17:18.830Z,3.29
2018-03-04T09:18:18.900Z,3.3
2018-03-04T09:19:18.832Z,3.37
2018-03-04T09:20:18.836Z,3.35
2018-03-04T09:21:18.825Z,3.37
2018-03-04T09:22:18.843Z,3.47
2018-03-04T09:23:18.940Z,3.45
2018-03-04T09:24:18.875Z,3.42
2018-03-04T09:25:18.917Z,3.51
2018-03-04T09:26:18.856Z,3.49
2018-03-04T09:27:18.861Z,3.63
2018-03-04T09:28:18.915Z,3.51
2018-03-04T09:29:18.862Z,3.56
2018-03-04T09:30:18.857Z,3.6
2018-03-04T09:31:18.926Z,3.55
2018-03-04T09:32:18.900Z,3.68
2018-03-04T09:33:18.911Z,3.76
2018-03-04T09:34:18.901Z,3.64
2018-03-04T09:35:18.916Z,3.74
2018-03-04T09:36:18.909Z,3.78
2018-03-04T09:37:18.886Z,3.77
2018-03-04T09:38:18.899Z,3.82
2018-03-04T09:39:18.897Z,3.82
2018-03-04T09:40:18.925Z,3.9
2018-03-04T09:41:18.961Z,3.88
2018-03-04T09:42:18.927Z,3.86
2018-03-04T09:43:18.932Z,3.93
2018-03-04T09:44:18.913Z,4
2018-03-04T09:45:18.948Z,4.04
2018-03-04T09:46:18.928Z,4
2018-03-04T09:47:18.952Z,3.99
2018-03-04T09:48:18.956Z,4.09
2018-03-04T09:49:18.926Z,4.08
2018-03-04T09:50:18.965Z,3.94
2018-03-04T09:51:18.949Z,3.99
2018-03-04T09:52:18.952Z,3.97
2018-03-04T09:53:18.971Z,3.93
2018-03-04T09:54:18.972Z,4.04
2018-03-04T09:55:19.027Z,4.06
2018-03-04T09:56:18.953Z,4.04
2018-03-04T09:57:18.951Z,4.04
2018-03-04T09:58:18.988Z,4.14
2018-03-04T09:59:19.078Z,4.04
2018-03-04T10:00:18.982Z,4.05
2018-03-04T10:01:18.978Z,4.13
2018-03-04T10:02:18.970Z,4.14
2018-03-04T10:03:18.995Z,4.15
2018-03-04T10:04:18.994Z,4.22
2018-03-04T10:05:18.983Z,4.08
2018-03-04T10:06:19.080Z,4.12
2018-03-04T10:07:19.049Z,4.12
2018-03-04T10:08:19.009Z,4.13
2018-03-04T10:09:18.978Z,4.09
2018-03-04T10:10:19.011Z,4.25
2018-03-04T10:11:19.003Z,4.2
2018-03-04T10:12:19.018Z,4.13
2018-03-04T10:13:19.016Z,4.2
2018-03-04T10:14:19.003Z,4.16
2018-03-04T10:15:19.049Z,4.2
2018-03-04T10:16:19.007Z,4.22
2018-03-04T10:17:19.010Z,4.32
2018-03-04T10:18:19.035Z,4.3
2018-03-04T10:19:19.034Z,4.28
2018-03-04T10:20:19.021Z,4.29
2018-03-04T10:21:19.039Z,4.34
2018-03-04T10:22:19.032Z,4.33
2018-03-04T10:23:19.048Z,4.4
2018-03-04T10:24:19.047Z,4.42
2018-03-04T10:25:19.119Z,4.5
2018-03-04T10:26:19.067Z,4.42
2018-03-04T10:27:19.055Z,4.44
2018-03-04T10:28:19.062Z,4.41
2018-03-04T10:29:20.208Z,4.39
2018-03-04T10:30:19.080Z,4.45
2018-03-04T10:31:19.087Z,4.46
2018-03-04T10:32:19.079Z,4.52
2018-03-04T10:33:19.099Z,4.45
2018-03-04T10:34:20.539Z,4.53
2018-03-04T10:35:21.693Z,4.63
2018-03-04T10:36:19.471Z,4.63
2018-03-04T10:37:19.100Z,4.58
2018-03-04T10:38:19.275Z,4.56
2018-03-04T10:39:19.114Z,4.5
2018-03-04T10:40:19.215Z,4.54
2018-03-04T10:41:19.102Z,4.61
2018-03-04T10:42:19.110Z,4.58
2018-03-04T10:43:19.221Z,4.6
2018-03-04T10:44:19.137Z,4.68
2018-03-04T10:45:19.710Z,4.66
2018-03-04T10:46:19.420Z,4.74
2018-03-04T10:47:19.121Z,4.68
2018-03-04T10:48:19.155Z,4.68
2018-03-04T10:49:19.166Z,4.6
2018-03-04T10:50:19.417Z,4.69
2018-03-04T10:51:19.131Z,4.69
2018-03-04T10:52:19.143Z,4.69
2018-03-04T10:53:19.136Z,4.8
2018-03-04T10:54:19.164Z,4.83
2018-03-04T10:55:19.203Z,4.81
2018-03-04T10:56:19.162Z,4.65
2018-03-04T10:57:19.186Z,4.81
2018-03-04T10:58:19.174Z,4.74
2018-03-04T10:59:19.169Z,4.87
2018-03-04T11:00:20.562Z,4.76
2018-03-04T11:01:19.182Z,4.78
2018-03-04T11:02:19.487Z,4.78
2018-03-04T11:03:19.186Z,4.88
2018-03-04T11:04:19.216Z,4.97
2018-03-04T11:05:19.198Z,4.94
2018-03-04T11:06:19.205Z,5.14
2018-03-04T11:07:19.263Z,5.15
2018-03-04T11:08:19.231Z,5.12
2018-03-04T11:09:19.199Z,5.08
2018-03-04T11:10:19.209Z,5.1
2018-03-04T11:11:19.199Z,5.06
2018-03-04T11:12:19.226Z,4.93
2018-03-04T11:13:19.213Z,5.05
2018-03-04T11:14:19.237Z,5.1
2018-03-04T11:15:19.687Z,4.99
2018-03-04T11:16:19.574Z,4.96
2018-03-04T11:17:19.228Z,5.02
2018-03-04T11:18:19.250Z,5.03
2018-03-04T11:19:19.225Z,4.86
2018-03-04T11:20:19.245Z,4.81
2018-03-04T11:21:19.320Z,5.13
2018-03-04T11:22:19.249Z,5.07
2018-03-04T11:23:19.235Z,4.78
2018-03-04T11:24:19.260Z,4.89
2018-03-04T11:25:19.264Z,5.11
2018-03-04T11:26:19.250Z,4.93
2018-03-04T11:27:19.264Z,4.94
2018-03-04T11:28:19.262Z,5.18
2018-03-04T11:29:19.261Z,4.95
2018-03-04T11:30:19.247Z,5.12
2018-03-04T11:31:19.270Z,5.07
2018-03-04T11:32:19.363Z,5.18
2018-03-04T11:33:19.269Z,5.13
2018-03-04T11:34:19.293Z,5.13
2018-03-04T11:35:19.289Z,4.94
2018-03-04T11:36:19.329Z,5.03
2018-03-04T11:37:19.289Z,4.87
2018-03-04T11:38:19.295Z,4.94
2018-03-04T11:39:19.570Z,4.97
2018-03-04T11:40:19.912Z,5
2018-03-04T11:41:19.291Z,5
2018-03-04T11:42:19.467Z,4.96
2018-03-04T11:43:19.300Z,5.03
2018-03-04T11:44:19.297Z,5.17
2018-03-04T11:45:19.339Z,5.28
2018-03-04T11:46:19.371Z,5.27
2018-03-04T11:47:19.417Z,5.14
2018-03-04T11:48:19.379Z,5.04
2018-03-04T11:49:19.351Z,4.93
2018-03-04T11:50:19.334Z,5.02
2018-03-04T11:51:19.369Z,5.08
2018-03-04T11:52:19.346Z,5.06
2018-03-04T11:53:19.349Z,5.04
2018-03-04T11:54:19.343Z,5.15
2018-03-04T11:55:19.409Z,5.23
2018-03-04T11:56:19.417Z,4.94
2018-03-04T11:57:19.429Z,5.13
2018-03-04T11:58:19.420Z,5.05
2018-03-04T11:59:19.354Z,5
2018-03-04T12:00:19.448Z,4.97
2018-03-04T12:01:19.349Z,4.93
2018-03-04T12:02:19.404Z,5.23
2018-03-04T12:03:19.405Z,5.31
2018-03-04T12:04:19.368Z,4.9
2018-03-04T12:05:19.379Z,4.92
2018-03-04T12:06:19.402Z,4.96
2018-03-04T12:07:19.456Z,5.04
2018-03-04T12:08:19.398Z,5.11
2018-03-04T12:09:19.384Z,5.13
2018-03-04T12:10:19.378Z,5.07
2018-03-04T12:11:19.387Z,5.07
2018-03-04T12:12:19.403Z,4.89
2018-03-04T12:13:19.435Z,4.96
2018-03-04T12:14:19.401Z,5.07
2018-03-04T12:15:19.480Z,5.04
2018-03-04T12:16:19.409Z,4.7
2018-03-04T12:17:19.412Z,5.02
2018-03-04T12:18:19.429Z,5.13
2018-03-04T12:19:19.541Z,4.9
2018-03-04T12:20:19.505Z,4.9
2018-03-04T12:21:19.461Z,4.79
2018-03-04T12:22:19.513Z,5.04
2018-03-04T12:23:19.441Z,4.7
2018-03-04T12:24:19.452Z,4.76
2018-03-04T12:25:19.498Z,4.76
2018-03-04T12:26:19.511Z,4.85
2018-03-04T12:27:19.457Z,4.41
2018-03-04T12:28:19.472Z,4.61
2018-03-04T12:29:19.542Z,4.75
2018-03-04T12:30:19.470Z,4.52
2018-03-04T12:31:19.464Z,4.56
2018-03-04T12:32:19.480Z,4.81
2018-03-04T12:33:19.685Z,4.9
2018-03-04T12:34:19.587Z,4.64
2018-03-04T12:35:20.584Z,4.5
2018-03-04T12:36:19.505Z,4.56
2018-03-04T12:37:21.204Z,4.14
2018-03-04T12:38:19.487Z,4.44
2018-03-04T12:39:19.494Z,4.57
2018-03-04T12:40:19.506Z,4.65
2018-03-04T12:41:19.497Z,4.22
2018-03-04T12:42:19.520Z,4.1
2018-03-04T12:43:19.522Z,3.91
2018-03-04T12:44:19.498Z,3.89
2018-03-04T12:45:19.655Z,4.02
2018-03-04T12:46:19.720Z,3.97
2018-03-04T12:47:19.506Z,4.25
2018-03-04T12:48:19.510Z,4.07
2018-03-04T12:49:19.517Z,3.84
2018-03-04T12:50:19.530Z,3.65
2018-03-04T12:51:19.531Z,3.85
2018-03-04T12:52:19.582Z,3.82
2018-03-04T12:53:19.642Z,3.66
2018-03-04T12:54:19.663Z,3.74
2018-03-04T12:55:20.254Z,3.98
2018-03-04T12:56:20.386Z,3.74
2018-03-04T12:57:19.880Z,3.87
2018-03-04T12:58:20.624Z,4.05
2018-03-04T12:59:19.560Z,4.27
2018-03-04T13:00:19.572Z,3.54
2018-03-04T13:01:19.884Z,3.52
2018-03-04T13:02:19.573Z,3.77
2018-03-04T13:03:19.606Z,3.16
2018-03-04T13:04:19.588Z,3.18
2018-03-04T13:05:19.578Z,3.5
2018-03-04T13:06:19.579Z,3.4
2018-03-04T13:07:19.613Z,3.27
2018-03-04T13:08:19.606Z,2.99
2018-03-04T13:09:19.593Z,3.12
2018-03-04T13:10:19.592Z,3.12
2018-03-04T13:11:19.593Z,2.96
2018-03-04T13:12:19.588Z,3.18
2018-03-04T13:13:19.643Z,2.84
2018-03-04T13:14:19.597Z,3.15
2018-03-04T13:15:19.611Z,2.89
2018-03-04T13:16:19.596Z,3.11
2018-03-04T13:17:20.002Z,2.97
2018-03-04T13:18:19.826Z,2.89
2018-03-04T13:19:20.320Z,2.73
2018-03-04T13:20:19.980Z,3.13
2018-03-04T13:21:19.640Z,3.26
2018-03-04T13:22:19.868Z,3.08
2018-03-04T13:23:19.646Z,3.13
2018-03-04T13:24:19.665Z,3.26
2018-03-04T13:25:19.685Z,3.19
2018-03-04T13:26:19.664Z,3.2
2018-03-04T13:27:19.698Z,2.95
2018-03-04T13:28:19.663Z,3.06
2018-03-04T13:29:19.695Z,2.83
2018-03-04T13:30:19.688Z,2.86
2018-03-04T13:31:19.693Z,2.48
2018-03-04T13:32:19.684Z,2.69
2018-03-04T13:33:19.745Z,2.34
2018-03-04T13:34:19.864Z,2.25
2018-03-04T13:35:19.673Z,2.45